createdAt,value
2022-11-24T00:01:19.869Z,100409.03
2022-11-24T00:03:21.393Z,100411.75
2022-11-24T00:05:23.680Z,100415.34
2022-11-24T00:07:25.138Z,100416.22
2022-11-24T00:09:26.609Z,100418.88
2022-11-24T00:11:30.423Z,100419.78
2022-11-24T00:13:33.480Z,100423.31
2022-11-24T00:15:34.926Z,100428.63
2022-11-24T00:17:36.373Z,100426.91
2022-11-24T00:19:37.856Z,100426.09
2022-11-24T00:21:39.382Z,100421.78
2022-11-24T00:23:41.082Z,100428.75
2022-11-24T00:25:42.539Z,100426.19
2022-11-24T00:27:44.050Z,100430.66
2022-11-24T00:29:45.544Z,100437.72
2022-11-24T00:31:47.050Z,100432.53
2022-11-24T00:33:50.708Z,100441.28
2022-11-24T00:35:59.662Z,100442.19
2022-11-24T00:38:01.647Z,100443.97
2022-11-24T00:40:03.218Z,100434.34
2022-11-24T00:42:04.706Z,100437.84
2022-11-24T00:44:06.734Z,100436.13
2022-11-24T00:46:08.315Z,100439.66
2022-11-24T00:48:09.987Z,100443.16
2022-11-24T00:50:11.560Z,100437.09
2022-11-24T00:52:12.987Z,100438.84
2022-11-24T00:54:14.423Z,100441.44
2022-11-24T00:56:16.146Z,100439.72
2022-11-24T00:58:17.568Z,100453.72
2022-11-24T01:00:19.137Z,100443.25
2022-11-24T01:02:20.746Z,100452.03
2022-11-24T01:04:22.243Z,100448.56
2022-11-24T01:06:25.932Z,100448.56
2022-11-24T01:08:27.376Z,100458.19
2022-11-24T01:10:28.957Z,100446.00
2022-11-24T01:12:30.623Z,100456.47
2022-11-24T01:14:33.103Z,100452.16
2022-11-24T01:16:35.305Z,100457.41
2022-11-24T01:18:36.755Z,100453.06
2022-11-24T01:20:38.233Z,100458.28
2022-11-24T01:22:40.085Z,100458.28
2022-11-24T01:24:41.672Z,100458.28
2022-11-24T01:26:43.338Z,100464.41
2022-11-24T01:28:47.568Z,100469.63
2022-11-24T01:30:59.734Z,100471.34
2022-11-24T01:33:01.223Z,100460.00
2022-11-24T01:35:06.674Z,100468.72
2022-11-24T01:37:08.166Z,100471.34
2022-11-24T01:39:09.612Z,100466.94
2022-11-24T01:41:13.832Z,100461.69
2022-11-24T01:43:18.195Z,100467.78
2022-11-24T01:45:31.331Z,100464.28
2022-11-24T01:47:36.417Z,100465.13
2022-11-24T01:49:48.904Z,100462.47
2022-11-24T01:52:16.228Z,100458.13
2022-11-24T01:54:24.471Z,100459.00
2022-11-24T01:56:27.393Z,100463.38
2022-11-24T01:58:32.997Z,100461.59
2022-11-24T02:00:37.918Z,100465.97
2022-11-24T02:02:41.100Z,100465.06
2022-11-24T02:04:43.748Z,100467.63
2022-11-24T02:06:46.486Z,100471.09
2022-11-24T02:09:13.839Z,100471.09
2022-11-24T02:11:15.575Z,100467.59
2022-11-24T02:13:17.958Z,100478.03
2022-11-24T02:15:20.853Z,100478.91
2022-11-24T02:17:22.410Z,100488.50
2022-11-24T02:19:45.129Z,100486.75
2022-11-24T02:21:46.874Z,100495.47
2022-11-24T02:24:06.065Z,100498.94
2022-11-24T02:26:38.864Z,100502.44
2022-11-24T02:28:40.427Z,100507.66
2022-11-24T02:30:42.202Z,100506.81
2022-11-24T02:32:43.814Z,100503.28
2022-11-24T02:34:45.383Z,100513.75
2022-11-24T02:36:46.827Z,100507.69
2022-11-24T02:38:48.294Z,100514.66
2022-11-24T02:40:49.830Z,100519.91
2022-11-24T02:42:58.758Z,100524.25
2022-11-24T02:45:01.062Z,100522.53
2022-11-24T02:47:11.570Z,100529.50
2022-11-24T02:49:13.094Z,100526.03
2022-11-24T02:51:14.622Z,100533.91
2022-11-24T02:53:16.061Z,100527.81
2022-11-24T02:55:17.594Z,100528.72
2022-11-24T02:57:19.074Z,100538.38
2022-11-24T02:59:20.628Z,100540.97
2022-11-24T03:01:22.692Z,100548.84
2022-11-24T03:03:24.724Z,100555.81
2022-11-24T03:05:26.273Z,100548.88
2022-11-24T03:07:27.903Z,100552.41
2022-11-24T03:09:30.567Z,100554.19
2022-11-24T03:11:32.117Z,100549.88
2022-11-24T03:13:33.652Z,100549.91
2022-11-24T03:15:36.121Z,100560.38
2022-11-24T03:17:37.648Z,100550.78
2022-11-24T03:19:39.139Z,100554.28
2022-11-24T03:21:40.675Z,100563.03
2022-11-24T03:23:42.173Z,100563.91
2022-11-24T03:25:43.635Z,100563.94
2022-11-24T03:27:45.399Z,100570.06
2022-11-24T03:29:46.905Z,100566.56
2022-11-24T03:31:48.381Z,100566.59
2022-11-24T03:33:49.895Z,100575.34
2022-11-24T03:35:51.366Z,100569.25
2022-11-24T03:37:52.840Z,100571.88
2022-11-24T03:39:54.280Z,100564.06
2022-11-24T03:41:55.755Z,100566.72
2022-11-24T03:43:57.237Z,100571.09
2022-11-24T03:45:58.750Z,100570.25
2022-11-24T03:48:00.260Z,100577.22
2022-11-24T03:50:01.759Z,100585.94
2022-11-24T03:52:07.870Z,100578.97
2022-11-24T03:54:09.822Z,100582.50
2022-11-24T03:56:11.329Z,100581.63
2022-11-24T03:58:12.808Z,100584.22
2022-11-24T04:00:14.714Z,100586.88
2022-11-24T04:02:16.255Z,100590.38
2022-11-24T04:04:17.751Z,100599.97
2022-11-24T04:06:19.217Z,100593.00
2022-11-24T04:08:20.733Z,100603.47
2022-11-24T04:10:22.183Z,100602.63
2022-11-24T04:12:41.925Z,100604.38
2022-11-24T04:14:43.400Z,100607.88
2022-11-24T04:16:44.887Z,100608.69
2022-11-24T04:18:46.398Z,100608.66
2022-11-24T04:20:52.043Z,100617.34
2022-11-24T04:22:53.475Z,100616.44
2022-11-24T04:24:54.898Z,100620.75
2022-11-24T04:26:56.367Z,100619.00
2022-11-24T04:28:57.824Z,100615.50
2022-11-24T04:31:03.112Z,100619.84
2022-11-24T04:33:04.656Z,100617.22
2022-11-24T04:35:06.560Z,100616.34
2022-11-24T04:37:08.012Z,100616.38
2022-11-24T04:39:23.121Z,100628.59
2022-11-24T04:41:28.126Z,100626.84
2022-11-24T04:43:30.317Z,100627.69
2022-11-24T04:45:31.823Z,100625.97
2022-11-24T04:47:33.525Z,100631.22
2022-11-24T04:49:34.967Z,100634.72
2022-11-24T04:51:36.413Z,100629.47
2022-11-24T04:53:37.876Z,100637.34
2022-11-24T04:55:40.356Z,100639.97
2022-11-24T04:57:41.841Z,100643.44
2022-11-24T04:59:43.373Z,100639.06
2022-11-24T05:01:46.690Z,100635.59
2022-11-24T05:03:48.242Z,100630.34
2022-11-24T05:05:49.732Z,100632.94
2022-11-24T05:07:51.316Z,100644.28
2022-11-24T05:10:11.278Z,100646.03
2022-11-24T05:12:12.716Z,100646.88
2022-11-24T05:14:14.216Z,100652.09
2022-11-24T05:16:15.863Z,100655.56
2022-11-24T05:18:17.440Z,100659.94
2022-11-24T05:20:19.612Z,100662.53
2022-11-24T05:22:21.054Z,100660.78
2022-11-24T05:24:22.509Z,100662.53
2022-11-24T05:26:23.968Z,100666.03
2022-11-24T05:28:25.430Z,100668.63
2022-11-24T05:30:27.412Z,100669.50
2022-11-24T05:32:28.892Z,100673.88
2022-11-24T05:34:33.431Z,100676.50
2022-11-24T05:36:53.308Z,100683.47
2022-11-24T05:38:54.979Z,100678.28
2022-11-24T05:41:04.519Z,100682.63
2022-11-24T05:43:11.185Z,100688.75
2022-11-24T05:45:15.305Z,100696.63
2022-11-24T05:47:17.314Z,100695.75
2022-11-24T05:49:18.898Z,100693.16
2022-11-24T05:51:20.357Z,100699.28
2022-11-24T05:53:28.009Z,100702.78
2022-11-24T05:55:32.432Z,100701.94
2022-11-24T05:57:34.145Z,100704.56
2022-11-24T05:59:35.831Z,100705.47
2022-11-24T06:01:37.416Z,100709.84
2022-11-24T06:03:39.089Z,100709.88
2022-11-24T06:05:40.722Z,100708.13
2022-11-24T06:07:48.110Z,100713.31
2022-11-24T06:09:49.709Z,100714.16
2022-11-24T06:11:52.481Z,100709.78
2022-11-24T06:13:54.016Z,100709.78
2022-11-24T06:15:59.307Z,100719.34
2022-11-24T06:18:01.008Z,100714.06
2022-11-24T06:20:02.792Z,100715.81
2022-11-24T06:22:04.721Z,100718.41
2022-11-24T06:24:06.665Z,100726.28
2022-11-24T06:26:09.174Z,100716.69
2022-11-24T06:28:10.632Z,100716.69
2022-11-24T06:30:12.950Z,100716.69
2022-11-24T06:32:14.698Z,100710.59
2022-11-24T06:34:16.158Z,100728.03
2022-11-24T06:36:17.620Z,100729.81
2022-11-24T06:38:24.209Z,100735.91
2022-11-24T06:40:25.873Z,100734.19
2022-11-24T06:42:27.341Z,100737.69
2022-11-24T06:44:28.899Z,100742.94
2022-11-24T06:46:30.445Z,100747.31
2022-11-24T06:48:32.655Z,100756.91
2022-11-24T06:50:34.108Z,100758.69
2022-11-24T06:52:35.555Z,100753.44
2022-11-24T06:54:37.145Z,100751.72
2022-11-24T06:56:38.932Z,100757.81
2022-11-24T06:58:42.339Z,100757.81
2022-11-24T07:00:44.043Z,100763.94
2022-11-24T07:02:46.240Z,100766.56
2022-11-24T07:04:47.958Z,100770.03
2022-11-24T07:06:49.579Z,100781.38
2022-11-24T07:08:51.378Z,100776.16
2022-11-24T07:10:53.008Z,100780.53
2022-11-24T07:12:54.471Z,100780.53
2022-11-24T07:14:56.006Z,100784.88
2022-11-24T07:16:57.544Z,100789.25
2022-11-24T07:19:00.056Z,100791.00
2022-11-24T07:21:06.757Z,100791.00
2022-11-24T07:23:09.002Z,100794.50
2022-11-24T07:25:10.902Z,100801.44
2022-11-24T07:27:12.371Z,100803.19
2022-11-24T07:29:13.877Z,100814.50
2022-11-24T07:31:18.923Z,100814.50
2022-11-24T07:33:25.011Z,100818.84
2022-11-24T07:35:27.112Z,100827.53
2022-11-24T07:37:31.578Z,100835.38
2022-11-24T07:39:33.451Z,100831.88
2022-11-24T07:41:34.879Z,100834.47
2022-11-24T07:43:37.911Z,100839.69
2022-11-24T07:45:39.427Z,100850.16
2022-11-24T07:47:41.288Z,100851.00
2022-11-24T07:49:42.744Z,100845.78
2022-11-24T07:51:44.284Z,100848.38
2022-11-24T07:53:46.338Z,100853.59
2022-11-24T07:55:55.672Z,100857.09
2022-11-24T07:58:01.339Z,100853.59
2022-11-24T08:00:05.708Z,100859.69
2022-11-24T08:02:07.292Z,100864.06
2022-11-24T08:04:08.812Z,100857.09
2022-11-24T08:06:30.534Z,100871.03
2022-11-24T08:08:35.526Z,100877.13
2022-11-24T08:10:36.969Z,100872.75
2022-11-24T08:12:38.478Z,100871.84
2022-11-24T08:14:39.980Z,100870.09
2022-11-24T08:16:41.511Z,100874.44
2022-11-24T08:18:43.742Z,100869.16
2022-11-24T08:20:45.227Z,100875.25
2022-11-24T08:22:46.679Z,100873.47
2022-11-24T08:24:49.105Z,100884.78
2022-11-24T08:26:50.563Z,100880.38
2022-11-24T08:28:59.151Z,100883.81
2022-11-24T08:31:12.897Z,100886.41
2022-11-24T08:33:14.472Z,100882.88
2022-11-24T08:35:15.983Z,100886.28
2022-11-24T08:37:17.441Z,100888.84
2022-11-24T08:39:19.086Z,100892.34
2022-11-24T08:41:20.551Z,100890.56
2022-11-24T08:43:22.527Z,100894.00
2022-11-24T08:45:25.633Z,100895.69
2022-11-24T08:47:27.307Z,100903.50
2022-11-24T08:49:28.951Z,100901.69
2022-11-24T08:51:30.444Z,100902.44
2022-11-24T08:53:31.976Z,100905.91
2022-11-24T08:55:33.438Z,100902.31
2022-11-24T08:57:34.868Z,100915.31
2022-11-24T08:59:36.436Z,100910.81
2022-11-24T09:01:38.209Z,100919.44
2022-11-24T09:03:46.320Z,100914.03
2022-11-24T09:05:52.472Z,100926.91
2022-11-24T09:07:54.560Z,100923.28
2022-11-24T09:09:56.065Z,100917.88
2022-11-24T09:11:57.516Z,100923.88
2022-11-24T09:13:59.084Z,100913.19
2022-11-24T09:16:08.752Z,100923.56
2022-11-24T09:18:10.227Z,100924.31
2022-11-24T09:20:11.813Z,100923.34
2022-11-24T09:22:13.283Z,100927.63
2022-11-24T09:24:16.500Z,100926.66
2022-11-24T09:26:22.931Z,100922.22
2022-11-24T09:28:24.367Z,100932.72
2022-11-24T09:30:26.319Z,100926.56
2022-11-24T09:32:30.524Z,100932.66
2022-11-24T09:34:32.050Z,100937.91
2022-11-24T09:36:34.210Z,100936.09
2022-11-24T09:38:35.901Z,100940.44
2022-11-24T09:40:37.474Z,100939.53
2022-11-24T09:42:53.722Z,100941.25
2022-11-24T09:45:41.664Z,100942.94
2022-11-24T09:48:08.406Z,100943.75
2022-11-24T09:50:23.080Z,100941.09
2022-11-24T09:52:33.699Z,100948.03
2022-11-24T09:54:37.880Z,100950.56
2022-11-24T09:56:42.289Z,100950.50
2022-11-24T09:58:48.509Z,100946.84
2022-11-24T10:00:53.502Z,100944.09
2022-11-24T10:02:54.976Z,100945.78
2022-11-24T10:04:56.705Z,100943.06
2022-11-24T10:07:19.800Z,100953.56
2022-11-24T10:09:40.049Z,100945.72
2022-11-24T10:11:45.597Z,100954.56
2022-11-24T10:14:18.055Z,100962.47
2022-11-24T10:16:47.563Z,100958.16
2022-11-24T10:19:09.983Z,100960.84
2022-11-24T10:21:41.882Z,100964.38
2022-11-24T10:24:07.855Z,100972.25
2022-11-24T10:26:36.639Z,100981.75
2022-11-24T10:28:43.932Z,100977.16
2022-11-24T10:30:45.510Z,100986.50
2022-11-24T10:32:49.757Z,100987.97
2022-11-24T10:34:51.401Z,100984.13
2022-11-24T10:37:07.338Z,100982.00
2022-11-24T10:39:26.906Z,100978.09
2022-11-24T10:41:42.556Z,100984.81
2022-11-24T10:43:44.093Z,100986.28
2022-11-24T10:45:45.673Z,100992.19
2022-11-24T10:47:47.187Z,100990.72
2022-11-24T10:50:11.634Z,100984.22
2022-11-24T10:52:16.537Z,100981.72
2022-11-24T10:54:20.984Z,100990.97
2022-11-24T10:56:22.548Z,100986.97
2022-11-24T10:58:37.914Z,100983.72
2022-11-24T11:00:39.797Z,100996.69
2022-11-24T11:02:41.357Z,100997.06
2022-11-24T11:04:42.811Z,100997.41
2022-11-24T11:06:44.315Z,100999.94
2022-11-24T11:08:45.999Z,100999.81
2022-11-24T11:10:50.451Z,100998.81
2022-11-24T11:12:52.000Z,101001.09
2022-11-24T11:14:53.456Z,101002.31
2022-11-24T11:16:57.731Z,101001.16
2022-11-24T11:19:01.544Z,101007.50
2022-11-24T11:21:05.178Z,101006.69
2022-11-24T11:23:25.362Z,101013.75
2022-11-24T11:25:32.715Z,101018.28
2022-11-24T11:27:34.230Z,101020.63
2022-11-24T11:34:30.171Z,101036.50
2022-11-24T11:36:33.132Z,101032.56
2022-11-24T11:38:38.468Z,101041.47
2022-11-24T11:40:42.763Z,101042.56
2022-11-24T11:43:04.370Z,101034.09
2022-11-24T11:45:24.129Z,101039.50
2022-11-24T11:47:38.558Z,101043.28
2022-11-24T11:49:40.369Z,101044.31
2022-11-24T11:51:52.151Z,101049.72
2022-11-24T11:53:56.353Z,101051.59
2022-11-24T11:56:03.596Z,101049.94
2022-11-24T11:58:14.164Z,101054.47
2022-11-24T12:00:20.339Z,101065.16
2022-11-24T12:02:24.641Z,101072.19
2022-11-24T12:04:48.650Z,101073.09
2022-11-24T12:07:21.866Z,101071.41
2022-11-24T12:09:37.103Z,101076.78
2022-11-24T12:12:14.020Z,101078.72
2022-11-24T12:14:21.436Z,101070.03
2022-11-24T12:16:38.066Z,101078.03
2022-11-24T12:18:57.466Z,101079.00
2022-11-24T12:21:24.621Z,101082.63
2022-11-24T12:23:45.188Z,101077.28
2022-11-24T12:26:05.083Z,101083.44
2022-11-24T12:28:37.902Z,101084.38
2022-11-24T12:31:04.297Z,101091.53
2022-11-24T12:33:17.866Z,101093.31
2022-11-24T12:35:45.687Z,101094.19
2022-11-24T12:38:24.287Z,101099.53
2022-11-24T12:43:46.766Z,101089.78
2022-11-24T12:46:19.175Z,101093.25
2022-11-24T12:48:35.891Z,101099.41
2022-11-24T12:50:39.888Z,101098.53
2022-11-24T12:52:55.603Z,101100.34
2022-11-24T12:55:02.746Z,101107.34
2022-11-24T12:57:14.873Z,101116.13
2022-11-24T12:59:27.983Z,101109.97
2022-11-24T13:01:58.586Z,101117.09
2022-11-24T13:04:15.086Z,101125.91
2022-11-24T13:06:54.605Z,101126.78
2022-11-24T13:08:56.837Z,101128.56
2022-11-24T13:11:21.027Z,101130.34
2022-11-24T13:13:26.550Z,101130.38
2022-11-24T13:15:45.730Z,101136.56
2022-11-24T13:18:05.529Z,101138.38
2022-11-24T13:20:21.295Z,101143.66
2022-11-24T13:22:25.399Z,101144.63
2022-11-24T13:24:30.855Z,101144.63
2022-11-24T13:26:41.458Z,101143.75
2022-11-24T13:29:28.019Z,101144.56
2022-11-24T13:31:29.552Z,101140.97
2022-11-24T13:33:32.364Z,101146.19
2022-11-24T13:35:33.923Z,101148.78
2022-11-24T13:37:36.539Z,101146.13
2022-11-24T13:40:13.427Z,101153.16
2022-11-24T13:42:43.683Z,101150.53
2022-11-24T13:44:50.933Z,101152.28
2022-11-24T13:47:22.060Z,101147.09
2022-11-24T13:49:23.919Z,101150.69
2022-11-24T13:51:25.834Z,101145.34
2022-11-24T13:53:38.149Z,101145.34
2022-11-24T13:55:41.093Z,101144.47
2022-11-24T13:57:48.214Z,101155.97
2022-11-24T13:59:49.726Z,101156.06
2022-11-24T14:01:58.623Z,101165.75
2022-11-24T14:04:36.063Z,101159.59
2022-11-24T14:06:49.192Z,101164.06
2022-11-24T14:08:51.762Z,101171.13
2022-11-24T14:10:57.922Z,101172.91
2022-11-24T14:13:29.706Z,101173.03
2022-11-24T14:15:34.249Z,101173.03
2022-11-24T14:17:37.513Z,101177.44
2022-11-24T14:19:39.468Z,101176.69
2022-11-24T14:21:41.372Z,101178.53
2022-11-24T14:23:50.351Z,101179.50
2022-11-24T14:25:52.492Z,101181.41
2022-11-24T14:27:54.330Z,101186.72
2022-11-24T14:29:58.669Z,101191.16
2022-11-24T14:32:03.509Z,101193.88
2022-11-24T14:34:24.911Z,101197.50
2022-11-24T14:36:26.425Z,101213.34
2022-11-24T14:38:28.081Z,101210.84
2022-11-24T14:40:39.791Z,101214.38
2022-11-24T14:42:41.298Z,101210.91
2022-11-24T14:44:55.656Z,101205.69
2022-11-24T14:47:06.965Z,101206.59
2022-11-24T14:49:08.702Z,101199.66
2022-11-24T14:51:21.752Z,101200.59
2022-11-24T14:53:26.268Z,101204.97
2022-11-24T14:55:29.335Z,101208.56
2022-11-24T14:57:37.184Z,101208.63
2022-11-24T14:59:39.514Z,101201.72
2022-11-24T15:01:41.064Z,101209.72
2022-11-24T15:03:42.547Z,101213.28
2022-11-24T15:05:52.033Z,101208.94
2022-11-24T15:08:02.507Z,101216.00
2022-11-24T15:10:07.022Z,101216.91
2022-11-24T15:12:28.486Z,101218.72
2022-11-24T15:14:36.819Z,101215.31
2022-11-24T15:16:39.963Z,101219.78
2022-11-24T15:18:47.606Z,101225.09
2022-11-24T15:20:49.142Z,101227.78
2022-11-24T15:22:52.459Z,101226.06
2022-11-24T15:24:54.322Z,101229.63
2022-11-24T15:27:00.615Z,101226.19
2022-11-24T15:29:02.110Z,101226.22
2022-11-24T15:31:06.497Z,101231.53
2022-11-24T15:33:14.932Z,101235.94
2022-11-24T15:35:16.443Z,101230.75
2022-11-24T15:37:17.943Z,101242.19
2022-11-24T15:39:19.378Z,101241.38
2022-11-24T15:41:24.648Z,101238.84
2022-11-24T15:43:32.709Z,101244.13
2022-11-24T15:45:34.618Z,101247.69
2022-11-24T15:47:36.090Z,101244.19
2022-11-24T15:49:37.544Z,101240.72
2022-11-24T15:51:43.540Z,101238.13
2022-11-24T15:53:57.219Z,101245.16
2022-11-24T15:56:05.882Z,101241.69
2022-11-24T15:58:10.095Z,101246.09
2022-11-24T16:00:20.033Z,101248.72
2022-11-24T16:02:22.276Z,101247.88
2022-11-24T16:04:23.792Z,101253.19
2022-11-24T16:06:25.707Z,101250.56
2022-11-24T16:08:27.323Z,101257.63
2022-11-24T16:10:32.855Z,101268.19
2022-11-24T16:12:34.411Z,101270.84
2022-11-24T16:14:36.428Z,101276.13
2022-11-24T16:16:38.234Z,101281.44
2022-11-24T16:18:40.114Z,101284.09
2022-11-24T16:20:41.576Z,101279.78
2022-11-24T16:22:43.485Z,101285.94
2022-11-24T16:24:44.955Z,101291.19
2022-11-24T16:26:46.445Z,101290.38
2022-11-24T16:28:47.939Z,101294.75
2022-11-24T16:30:50.211Z,101297.38
2022-11-24T16:32:51.676Z,101301.78
2022-11-24T16:34:53.516Z,101300.94
2022-11-24T16:36:54.975Z,101303.59
2022-11-24T16:38:56.459Z,101309.72
2022-11-24T16:40:58.488Z,101314.13
2022-11-24T16:42:59.928Z,101322.88
2022-11-24T16:45:01.701Z,101322.88
2022-11-24T16:47:03.261Z,101320.25
2022-11-24T16:49:04.907Z,101319.41
2022-11-24T16:51:08.238Z,101322.03
2022-11-24T16:53:09.675Z,101316.78
2022-11-24T16:55:12.369Z,101321.19
2022-11-24T16:57:15.272Z,101322.94
2022-11-24T16:59:16.836Z,101319.47
2022-11-24T17:01:18.347Z,101322.09
2022-11-24T17:03:19.878Z,101323.84
2022-11-24T17:05:21.350Z,101325.63
2022-11-24T17:07:22.870Z,101323.00
2022-11-24T17:09:24.418Z,101325.66
2022-11-24T17:11:28.131Z,101329.16
2022-11-24T17:13:32.031Z,101333.53
2022-11-24T17:15:37.837Z,101330.94
2022-11-24T17:18:01.215Z,101330.94
2022-11-24T17:20:03.944Z,101338.78
2022-11-24T17:22:05.434Z,101331.81
2022-11-24T17:24:08.768Z,101330.06
2022-11-24T17:26:13.416Z,101330.94
2022-11-24T17:28:14.847Z,101338.81
2022-11-24T17:30:17.088Z,101339.69
2022-11-24T17:32:18.618Z,101333.53
2022-11-24T17:34:20.477Z,101338.78
2022-11-24T17:36:22.358Z,101341.41
2022-11-24T17:38:23.805Z,101337.06
2022-11-24T17:40:29.313Z,101336.19
2022-11-24T17:42:30.946Z,101337.94
2022-11-24T17:44:32.490Z,101339.69
2022-11-24T17:46:34.695Z,101346.66
2022-11-24T17:48:36.717Z,101339.69
2022-11-24T17:50:38.180Z,101340.53
2022-11-24T17:52:39.619Z,101345.75
2022-11-24T17:54:48.193Z,101338.78
2022-11-24T17:56:49.838Z,101348.38
2022-11-24T17:59:01.024Z,101342.25
2022-11-24T18:01:02.802Z,101332.66
2022-11-24T18:03:05.389Z,101337.91
2022-11-24T18:05:07.154Z,101341.38
2022-11-24T18:07:08.643Z,101337.91
2022-11-24T18:09:10.232Z,101339.66
2022-11-24T18:11:14.957Z,101344.88
2022-11-24T18:13:34.138Z,101350.97
2022-11-24T18:15:37.849Z,101344.00
2022-11-24T18:17:39.768Z,101345.75
2022-11-24T18:19:41.228Z,101341.38
2022-11-24T18:21:44.761Z,101343.94
2022-11-24T18:23:47.250Z,101343.94
2022-11-24T18:25:59.863Z,101342.22
2022-11-24T18:28:01.307Z,101342.19
2022-11-24T18:30:03.836Z,101343.06
2022-11-24T18:32:06.327Z,101342.19
2022-11-24T18:34:08.108Z,101343.06
2022-11-24T18:36:15.342Z,101335.19
2022-11-24T18:38:16.796Z,101343.91
2022-11-24T18:40:18.292Z,101345.66
2022-11-24T18:42:20.877Z,101346.53
2022-11-24T18:44:22.429Z,101336.94
2022-11-24T18:46:23.976Z,101343.91
2022-11-24T18:48:26.151Z,101345.66
2022-11-24T18:50:27.600Z,101343.88
2022-11-24T18:52:29.060Z,101341.28
2022-11-24T18:54:30.513Z,101349.97
2022-11-24T18:56:32.079Z,101353.47
2022-11-24T18:58:35.146Z,101352.56
2022-11-24T19:00:36.883Z,101349.91
2022-11-24T19:02:38.620Z,101343.81
2022-11-24T19:04:40.272Z,101342.94
2022-11-24T19:06:41.717Z,101342.91
2022-11-24T19:08:43.524Z,101338.53
2022-11-24T19:10:45.266Z,101332.44
2022-11-24T19:12:46.720Z,101335.91
2022-11-24T19:14:48.214Z,101335.91
2022-11-24T19:16:49.871Z,101336.78
2022-11-24T19:18:54.341Z,101338.53
2022-11-24T19:20:57.581Z,101335.03
2022-11-24T19:22:59.024Z,101344.59
2022-11-24T19:25:00.466Z,101342.84
2022-11-24T19:27:01.970Z,101345.44
2022-11-24T19:29:04.701Z,101341.94
2022-11-24T19:31:08.831Z,101339.31
2022-11-24T19:33:10.257Z,101345.41
2022-11-24T19:35:11.711Z,101349.72
2022-11-24T19:37:13.838Z,101354.06
2022-11-24T19:39:16.379Z,101344.47
2022-11-24T19:41:19.825Z,101352.31
2022-11-24T19:43:21.289Z,101353.16
2022-11-24T19:45:22.745Z,101354.91
2022-11-24T19:47:24.277Z,101361.00
2022-11-24T19:49:25.827Z,101360.13
2022-11-24T19:51:33.381Z,101363.63
2022-11-24T19:53:35.869Z,101359.25
2022-11-24T19:55:37.298Z,101369.69
2022-11-24T19:57:38.776Z,101368.81
2022-11-24T19:59:40.363Z,101373.19
2022-11-24T20:01:42.689Z,101374.03
2022-11-24T20:03:45.974Z,101382.72
2022-11-24T20:05:59.856Z,101383.59
2022-11-24T20:08:01.371Z,101381.84
2022-11-24T20:10:07.744Z,101386.19
2022-11-24T20:12:09.987Z,101390.53
2022-11-24T20:14:13.630Z,101387.03
2022-11-24T20:16:20.401Z,101390.53
2022-11-24T20:18:22.229Z,101392.25
2022-11-24T20:20:23.809Z,101388.75
2022-11-24T20:22:25.335Z,101388.75
2022-11-24T20:24:26.835Z,101393.09
2022-11-24T20:26:31.814Z,101390.47
2022-11-24T20:28:33.586Z,101395.69
2022-11-24T20:30:35.045Z,101398.28
2022-11-24T20:32:36.509Z,101399.13
2022-11-24T20:34:38.302Z,101399.13
2022-11-24T20:36:43.860Z,101399.97
2022-11-24T20:38:46.468Z,101405.13
2022-11-24T20:40:47.940Z,101410.34
2022-11-24T20:42:49.365Z,101407.72
2022-11-24T20:44:50.913Z,101409.44
2022-11-24T20:46:55.175Z,101402.47
2022-11-24T20:48:57.359Z,101408.53
2022-11-24T20:51:10.943Z,101413.75
2022-11-24T20:53:12.774Z,101412.88
2022-11-24T20:55:14.412Z,101419.81
2022-11-24T20:57:15.880Z,101413.66
2022-11-24T20:59:21.570Z,101415.34
2022-11-24T21:01:26.794Z,101423.19
2022-11-24T21:03:28.279Z,101426.66
2022-11-24T21:05:29.781Z,101420.56
2022-11-24T21:07:31.283Z,101419.72
2022-11-24T21:09:32.807Z,101420.59
2022-11-24T21:11:34.733Z,101422.34
2022-11-24T21:13:37.356Z,101418.84
2022-11-24T21:15:38.826Z,101417.09
2022-11-24T21:17:40.320Z,101417.09
2022-11-24T21:19:41.774Z,101420.59
2022-11-24T21:21:43.384Z,101412.72
2022-11-24T21:23:48.023Z,101416.19
2022-11-24T21:25:49.466Z,101416.16
2022-11-24T21:27:50.889Z,101413.53
2022-11-24T21:29:52.334Z,101411.78
2022-11-24T21:31:53.953Z,101408.28
2022-11-24T21:33:55.804Z,101417.88
2022-11-24T21:36:05.492Z,101414.38
2022-11-24T21:38:06.962Z,101413.50
2022-11-24T21:40:08.775Z,101410.00
2022-11-24T21:42:10.599Z,101416.91
2022-11-24T21:44:13.541Z,101414.25
2022-11-24T21:46:15.477Z,101420.31
2022-11-24T21:48:16.950Z,101415.94
2022-11-24T21:50:18.409Z,101412.44
2022-11-24T21:52:19.892Z,101413.28
2022-11-24T21:54:22.078Z,101408.03
2022-11-24T21:56:24.351Z,101410.63
2022-11-24T21:58:26.905Z,101419.31
2022-11-24T22:00:28.343Z,101411.47
2022-11-24T22:02:29.804Z,101410.59
2022-11-24T22:04:31.267Z,101413.22
2022-11-24T22:06:33.309Z,101408.84
2022-11-24T22:08:35.160Z,101403.63
2022-11-24T22:10:36.613Z,101405.34
2022-11-24T22:12:38.060Z,101403.59
2022-11-24T22:14:40.649Z,101406.22
2022-11-24T22:16:42.355Z,101411.41
2022-11-24T22:18:44.654Z,101416.63
2022-11-24T22:20:54.140Z,101408.81
2022-11-24T22:22:55.676Z,101404.44
2022-11-24T22:24:57.110Z,101412.22
2022-11-24T22:26:59.290Z,101411.34
2022-11-24T22:29:00.715Z,101411.31
2022-11-24T22:31:13.126Z,101411.31
2022-11-24T22:33:14.625Z,101407.81
2022-11-24T22:35:16.157Z,101397.38
2022-11-24T22:37:17.580Z,101406.94
2022-11-24T22:39:19.035Z,101406.00
2022-11-24T22:41:20.605Z,101406.84
2022-11-24T22:43:23.221Z,101406.84
2022-11-24T22:45:24.836Z,101402.50
2022-11-24T22:47:26.283Z,101405.97
2022-11-24T22:49:28.351Z,101405.97
2022-11-24T22:51:32.917Z,101407.69
2022-11-24T22:53:34.439Z,101398.09
2022-11-24T22:55:35.971Z,101399.84
2022-11-24T22:57:37.400Z,101397.22
2022-11-24T22:59:38.892Z,101391.13
2022-11-24T23:01:40.350Z,101393.72
2022-11-24T23:03:42.705Z,101393.72
2022-11-24T23:05:44.215Z,101396.34
2022-11-24T23:07:45.776Z,101391.13
2022-11-24T23:09:47.702Z,101387.66
2022-11-24T23:11:49.570Z,101388.50
2022-11-24T23:13:55.804Z,101382.41
2022-11-24T23:16:09.757Z,101383.25
2022-11-24T23:18:11.193Z,101378.91
2022-11-24T23:20:13.391Z,101379.75
2022-11-24T23:22:14.846Z,101379.75
2022-11-24T23:24:16.467Z,101377.13
2022-11-24T23:26:21.676Z,101380.63
2022-11-24T23:28:23.180Z,101383.22
2022-11-24T23:30:24.908Z,101384.09
2022-11-24T23:32:26.425Z,101396.28
2022-11-24T23:34:27.904Z,101392.78
2022-11-24T23:36:30.584Z,101386.69
2022-11-24T23:38:32.899Z,101389.31
2022-11-24T23:40:34.385Z,101386.69
2022-11-24T23:42:35.811Z,101377.13
2022-11-24T23:44:37.493Z,101382.31
2022-11-24T23:46:39.055Z,101377.09
2022-11-24T23:48:40.868Z,101382.25
2022-11-24T23:50:42.378Z,101384.88
2022-11-24T23:52:43.802Z,101377.03
2022-11-24T23:54:45.369Z,101371.81